sensor_id;sensor_type;location;lat;lon;timestamp;pressure;altitude;pressure_sealevel;temperature;humidity
13080;BME280;6606;49.154;9.280;2023-05-07T00:00:58;99552.19;;;13.55;100.00
13080;BME280;6606;49.154;9.280;2023-05-07T00:03:40;99549.53;;;13.55;100.00
13080;BME280;6606;49.154;9.280;2023-05-07T00:06:22;99540.69;;;13.55;100.00
13080;BME280;6606;49.154;9.280;2023-05-07T00:09:04;99539.47;;;13.46;100.00
13080;BME280;6606;49.154;9.280;2023-05-07T00:11:46;99540.06;;;13.37;100.00
13080;BME280;6606;49.154;9.280;2023-05-07T00:14:27;99537.00;;;13.43;100.00
13080;BME280;6606;49.154;9.280;2023-05-07T00:17:10;99534.63;;;13.38;100.00
13080;BME280;6606;49.154;9.280;2023-05-07T00:19:52;99536.03;;;13.44;100.00
13080;BME280;6606;49.154;9.280;2023-05-07T00:22:34;99544.22;;;13.41;100.00
13080;BME280;6606;49.154;9.280;2023-05-07T00:25:16;99539.09;;;13.38;100.00
13080;BME280;6606;49.154;9.280;2023-05-07T00:27:59;99541.97;;;13.35;100.00
13080;BME280;6606;49.154;9.280;2023-05-07T00:30:44;99534.19;;;13.32;100.00
13080;BME280;6606;49.154;9.280;2023-05-07T00:33:27;99533.59;;;13.27;100.00
13080;BME280;6606;49.154;9.280;2023-05-07T00:36:08;99528.19;;;13.14;100.00
13080;BME280;6606;49.154;9.280;2023-05-07T00:38:50;99520.47;;;13.09;100.00
13080;BME280;6606;49.154;9.280;2023-05-07T00:41:32;99518.22;;;13.03;100.00
13080;BME280;6606;49.154;9.280;2023-05-07T00:44:14;99518.13;;;13.05;100.00
13080;BME280;6606;49.154;9.280;2023-05-07T00:46:56;99523.91;;;13.11;100.00
13080;BME280;6606;49.154;9.280;2023-05-07T00:49:42;99521.44;;;13.08;100.00
13080;BME280;6606;49.154;9.280;2023-05-07T00:52:25;99529.69;;;13.04;100.00
13080;BME280;6606;49.154;9.280;2023-05-07T00:55:07;99519.25;;;13.01;100.00
13080;BME280;6606;49.154;9.280;2023-05-07T00:57:50;99524.13;;;12.94;100.00
13080;BME280;6606;49.154;9.280;2023-05-07T01:00:32;99522.00;;;12.99;100.00
13080;BME280;6606;49.154;9.280;2023-05-07T01:03:14;99514.50;;;13.06;100.00
13080;BME280;6606;49.154;9.280;2023-05-07T01:05:58;99516.50;;;13.02;100.00
13080;BME280;6606;49.154;9.280;2023-05-07T01:08:41;99518.97;;;13.05;100.00
13080;BME280;6606;49.154;9.280;2023-05-07T01:11:24;99512.69;;;13.06;100.00
13080;BME280;6606;49.154;9.280;2023-05-07T01:14:07;99512.69;;;13.06;100.00
13080;BME280;6606;49.154;9.280;2023-05-07T01:16:50;99516.78;;;12.97;100.00
13080;BME280;6606;49.154;9.280;2023-05-07T01:19:33;99515.25;;;12.93;100.00
13080;BME280;6606;49.154;9.280;2023-05-07T01:22:29;99510.25;;;12.89;100.00
13080;BME280;6606;49.154;9.280;2023-05-07T01:25:12;99509.28;;;12.90;100.00
13080;BME280;6606;49.154;9.280;2023-05-07T01:28:00;99504.06;;;12.88;100.00
13080;BME280;6606;49.154;9.280;2023-05-07T01:30:49;99510.59;;;12.83;100.00
13080;BME280;6606;49.154;9.280;2023-05-07T01:33:33;99502.94;;;12.78;100.00
13080;BME280;6606;49.154;9.280;2023-05-07T01:36:17;99511.47;;;12.83;100.00
13080;BME280;6606;49.154;9.280;2023-05-07T01:39:01;99508.06;;;12.81;100.00
13080;BME280;6606;49.154;9.280;2023-05-07T01:41:43;99509.75;;;12.82;100.00
13080;BME280;6606;49.154;9.280;2023-05-07T01:44:26;99504.44;;;12.82;100.00
13080;BME280;6606;49.154;9.280;2023-05-07T01:47:09;99501.97;;;12.79;100.00
13080;BME280;6606;49.154;9.280;2023-05-07T01:49:51;99506.72;;;12.74;100.00
13080;BME280;6606;49.154;9.280;2023-05-07T01:52:34;99507.78;;;12.71;100.00
13080;BME280;6606;49.154;9.280;2023-05-07T01:55:20;99497.53;;;12.65;100.00
13080;BME280;6606;49.154;9.280;2023-05-07T01:58:02;99492.94;;;12.53;100.00
13080;BME280;6606;49.154;9.280;2023-05-07T02:00:44;99496.38;;;12.55;100.00
13080;BME280;6606;49.154;9.280;2023-05-07T02:03:25;99500.38;;;12.62;100.00
13080;BME280;6606;49.154;9.280;2023-05-07T02:06:16;99501.88;;;12.52;100.00
13080;BME280;6606;49.154;9.280;2023-05-07T02:08:58;99494.06;;;12.49;100.00
13080;BME280;6606;49.154;9.280;2023-05-07T02:11:41;99493.78;;;12.53;100.00
13080;BME280;6606;49.154;9.280;2023-05-07T02:14:23;99499.41;;;12.63;100.00
13080;BME280;6606;49.154;9.280;2023-05-07T02:17:06;99499.59;;;12.60;100.00
13080;BME280;6606;49.154;9.280;2023-05-07T02:19:49;99496.00;;;12.61;100.00
13080;BME280;6606;49.154;9.280;2023-05-07T02:22:31;99498.56;;;12.63;100.00
13080;BME280;6606;49.154;9.280;2023-05-07T02:25:12;99509.00;;;12.66;100.00
13080;BME280;6606;49.154;9.280;2023-05-07T02:27:56;99511.00;;;12.62;100.00
13080;BME280;6606;49.154;9.280;2023-05-07T02:30:46;99513.66;;;12.62;100.00
13080;BME280;6606;49.154;9.280;2023-05-07T02:33:28;99506.03;;;12.56;100.00
13080;BME280;6606;49.154;9.280;2023-05-07T02:36:12;99503.78;;;12.50;100.00
13080;BME280;6606;49.154;9.280;2023-05-07T02:39:00;99516.28;;;12.48;100.00
13080;BME280;6606;49.154;9.280;2023-05-07T02:41:43;99512.03;;;12.45;100.00
13080;BME280;6606;49.154;9.280;2023-05-07T02:44:26;99518.38;;;12.43;100.00
13080;BME280;6606;49.154;9.280;2023-05-07T02:47:12;99522.19;;;12.39;100.00
13080;BME280;6606;49.154;9.280;2023-05-07T02:49:55;99510.78;;;12.37;100.00
13080;BME280;6606;49.154;9.280;2023-05-07T02:52:37;99515.59;;;12.30;100.00
13080;BME280;6606;49.154;9.280;2023-05-07T02:55:19;99512.09;;;12.29;100.00
13080;BME280;6606;49.154;9.280;2023-05-07T02:58:01;99505.94;;;12.29;100.00
13080;BME280;6606;49.154;9.280;2023-05-07T03:00:47;99508.84;;;12.24;100.00
13080;BME280;6606;49.154;9.280;2023-05-07T03:03:43;99506.19;;;12.24;100.00
13080;BME280;6606;49.154;9.280;2023-05-07T03:06:25;99514.34;;;12.21;100.00
13080;BME280;6606;49.154;9.280;2023-05-07T03:09:07;99510.94;;;12.19;100.00
13080;BME280;6606;49.154;9.280;2023-05-07T03:11:50;99513.75;;;12.16;100.00
13080;BME280;6606;49.154;9.280;2023-05-07T03:14:32;99506.16;;;12.10;100.00
13080;BME280;6606;49.154;9.280;2023-05-07T03:17:15;99506.34;;;12.07;100.00
13080;BME280;6606;49.154;9.280;2023-05-07T03:19:57;99503.78;;;12.05;100.00
13080;BME280;6606;49.154;9.280;2023-05-07T03:22:39;99499.50;;;12.03;100.00
13080;BME280;6606;49.154;9.280;2023-05-07T03:25:21;99503.31;;;11.99;100.00
13080;BME280;6606;49.154;9.280;2023-05-07T03:28:03;99488.88;;;12.03;100.00
13080;BME280;6606;49.154;9.280;2023-05-07T03:30:53;99496.84;;;12.03;100.00
13080;BME280;6606;49.154;9.280;2023-05-07T03:33:49;99492.50;;;12.02;100.00
13080;BME280;6606;49.154;9.280;2023-05-07T03:36:31;99502.34;;;12.00;100.00
13080;BME280;6606;49.154;9.280;2023-05-07T03:39:13;99493.53;;;11.99;100.00
13080;BME280;6606;49.154;9.280;2023-05-07T03:41:55;99492.31;;;12.05;100.00
13080;BME280;6606;49.154;9.280;2023-05-07T03:44:37;99483.78;;;12.14;100.00
13080;BME280;6606;49.154;9.280;2023-05-07T03:47:19;99490.75;;;12.31;100.00
13080;BME280;6606;49.154;9.280;2023-05-07T03:50:03;99494.78;;;12.22;100.00
13080;BME280;6606;49.154;9.280;2023-05-07T03:52:45;99502.75;;;12.08;100.00
13080;BME280;6606;49.154;9.280;2023-05-07T03:55:29;99495.03;;;12.03;100.00
13080;BME280;6606;49.154;9.280;2023-05-07T03:58:13;99494.00;;;12.06;100.00
13080;BME280;6606;49.154;9.280;2023-05-07T04:00:56;99503.50;;;12.10;100.00
13080;BME280;6606;49.154;9.280;2023-05-07T04:03:41;99503.78;;;12.05;100.00
13080;BME280;6606;49.154;9.280;2023-05-07T04:06:24;99509.94;;;12.06;100.00
13080;BME280;6606;49.154;9.280;2023-05-07T04:09:07;99513.38;;;12.08;100.00
13080;BME280;6606;49.154;9.280;2023-05-07T04:11:49;99513.75;;;12.02;100.00
13080;BME280;6606;49.154;9.280;2023-05-07T04:14:31;99518.69;;;12.08;100.00
13080;BME280;6606;49.154;9.280;2023-05-07T04:17:14;99520.50;;;12.07;100.00
13080;BME280;6606;49.154;9.280;2023-05-07T04:19:56;99519.47;;;12.10;100.00
13080;BME280;6606;49.154;9.280;2023-05-07T04:22:41;99524.59;;;12.27;100.00
13080;BME280;6606;49.154;9.280;2023-05-07T04:25:23;99533.66;;;12.39;100.00
13080;BME280;6606;49.154;9.280;2023-05-07T04:28:10;99536.34;;;12.53;100.00
13080;BME280;6606;49.154;9.280;2023-05-07T04:30:54;99529.63;;;12.62;100.00
13080;BME280;6606;49.154;9.280;2023-05-07T04:33:36;99528.34;;;12.53;100.00
13080;BME280;6606;49.154;9.280;2023-05-07T04:36:20;99535.47;;;12.53;100.00
13080;BME280;6606;49.154;9.280;2023-05-07T04:39:09;99535.88;;;12.61;100.00
13080;BME280;6606;49.154;9.280;2023-05-07T04:41:53;99540.06;;;12.65;100.00
13080;BME280;6606;49.154;9.280;2023-05-07T04:44:35;99546.69;;;12.72;100.00
13080;BME280;6606;49.154;9.280;2023-05-07T04:47:17;99542.91;;;12.76;100.00
13080;BME280;6606;49.154;9.280;2023-05-07T04:49:59;99548.59;;;12.99;100.00
13080;BME280;6606;49.154;9.280;2023-05-07T04:52:41;99548.50;;;13.15;100.00
13080;BME280;6606;49.154;9.280;2023-05-07T04:55:24;99550.16;;;13.32;100.00
13080;BME280;6606;49.154;9.280;2023-05-07T04:58:07;99550.88;;;13.48;100.00
13080;BME280;6606;49.154;9.280;2023-05-07T05:00:51;99552.91;;;13.72;100.00
13080;BME280;6606;49.154;9.280;2023-05-07T05:03:33;99557.81;;;13.78;100.00
13080;BME280;6606;49.154;9.280;2023-05-07T05:06:15;99562.91;;;13.95;100.00
13080;BME280;6606;49.154;9.280;2023-05-07T05:08:56;99564.16;;;14.17;100.00
13080;BME280;6606;49.154;9.280;2023-05-07T05:11:41;99574.63;;;14.33;100.00
13080;BME280;6606;49.154;9.280;2023-05-07T05:14:23;99572.06;;;14.31;100.00
13080;BME280;6606;49.154;9.280;2023-05-07T05:17:06;99569.13;;;14.48;100.00
13080;BME280;6606;49.154;9.280;2023-05-07T05:19:50;99565.84;;;14.58;100.00
13080;BME280;6606;49.154;9.280;2023-05-07T05:22:32;99567.97;;;14.65;100.00
13080;BME280;6606;49.154;9.280;2023-05-07T05:25:39;99568.44;;;14.72;100.00
13080;BME280;6606;49.154;9.280;2023-05-07T05:28:36;99564.78;;;14.73;100.00
13080;BME280;6606;49.154;9.280;2023-05-07T05:31:27;99571.50;;;14.66;100.00
13080;BME280;6606;49.154;9.280;2023-05-07T05:34:15;99571.94;;;14.85;100.00
13080;BME280;6606;49.154;9.280;2023-05-07T05:36:58;99572.13;;;15.08;100.00
13080;BME280;6606;49.154;9.280;2023-05-07T05:39:40;99573.19;;;15.18;100.00
13080;BME280;6606;49.154;9.280;2023-05-07T05:42:24;99570.41;;;15.32;100.00
13080;BME280;6606;49.154;9.280;2023-05-07T05:45:08;99573.63;;;15.37;100.00
13080;BME280;6606;49.154;9.280;2023-05-07T05:47:51;99562.41;;;15.32;100.00
13080;BME280;6606;49.154;9.280;2023-05-07T05:50:59;99567.00;;;15.30;100.00
13080;BME280;6606;49.154;9.280;2023-05-07T05:53:43;99570.22;;;15.59;100.00
13080;BME280;6606;49.154;9.280;2023-05-07T05:56:24;99567.25;;;15.64;100.00
13080;BME280;6606;49.154;9.280;2023-05-07T05:59:06;99564.94;;;15.83;100.00
13080;BME280;6606;49.154;9.280;2023-05-07T06:01:49;99575.06;;;16.15;100.00
13080;BME280;6606;49.154;9.280;2023-05-07T06:04:31;99570.97;;;16.22;100.00
13080;BME280;6606;49.154;9.280;2023-05-07T06:07:13;99565.81;;;16.19;100.00
13080;BME280;6606;49.154;9.280;2023-05-07T06:09:55;99571.88;;;16.10;100.00
13080;BME280;6606;49.154;9.280;2023-05-07T06:12:37;99576.59;;;16.31;100.00
13080;BME280;6606;49.154;9.280;2023-05-07T06:15:19;99580.31;;;16.17;100.00
13080;BME280;6606;49.154;9.280;2023-05-07T06:18:03;99578.22;;;16.56;100.00
13080;BME280;6606;49.154;9.280;2023-05-07T06:20:45;99576.22;;;16.70;100.00
13080;BME280;6606;49.154;9.280;2023-05-07T06:23:36;99577.50;;;17.00;100.00
13080;BME280;6606;49.154;9.280;2023-05-07T06:26:19;99575.50;;;17.70;100.00
13080;BME280;6606;49.154;9.280;2023-05-07T06:29:02;99573.72;;;18.14;100.00
13080;BME280;6606;49.154;9.280;2023-05-07T06:31:44;99576.94;;;18.50;100.00
13080;BME280;6606;49.154;9.280;2023-05-07T06:34:27;99574.38;;;18.27;100.00
13080;BME280;6606;49.154;9.280;2023-05-07T06:37:09;99577.84;;;18.39;100.00
13080;BME280;6606;49.154;9.280;2023-05-07T06:40:03;99591.19;;;18.82;100.00
13080;BME280;6606;49.154;9.280;2023-05-07T06:42:47;99579.59;;;19.03;100.00
13080;BME280;6606;49.154;9.280;2023-05-07T06:45:37;99579.34;;;19.46;100.00
13080;BME280;6606;49.154;9.280;2023-05-07T06:48:20;99587.81;;;19.42;100.00
13080;BME280;6606;49.154;9.280;2023-05-07T06:51:17;99585.41;;;19.69;100.00
13080;BME280;6606;49.154;9.280;2023-05-07T06:53:58;99580.91;;;19.99;100.00
13080;BME280;6606;49.154;9.280;2023-05-07T06:56:40;99579.47;;;19.95;100.00
13080;BME280;6606;49.154;9.280;2023-05-07T06:59:23;99570.72;;;20.41;100.00
13080;BME280;6606;49.154;9.280;2023-05-07T07:02:05;99573.56;;;20.40;100.00
13080;BME280;6606;49.154;9.280;2023-05-07T07:04:49;99573.41;;;20.03;100.00
13080;BME280;6606;49.154;9.280;2023-05-07T07:07:32;99574.53;;;20.00;100.00
13080;BME280;6606;49.154;9.280;2023-05-07T07:10:14;99580.38;;;20.63;100.00
13080;BME280;6606;49.154;9.280;2023-05-07T07:12:56;99567.91;;;24.68;100.00
13080;BME280;6606;49.154;9.280;2023-05-07T07:15:37;99558.31;;;25.69;87.40
13080;BME280;6606;49.154;9.280;2023-05-07T07:18:19;99551.00;;;27.52;71.26
13080;BME280;6606;49.154;9.280;2023-05-07T07:21:03;99539.09;;;29.39;61.79
13080;BME280;6606;49.154;9.280;2023-05-07T07:23:46;99534.94;;;31.17;57.61
13080;BME280;6606;49.154;9.280;2023-05-07T07:26:29;99541.31;;;32.96;44.60
13080;BME280;6606;49.154;9.280;2023-05-07T07:29:11;99539.66;;;32.70;44.98
13080;BME280;6606;49.154;9.280;2023-05-07T07:31:54;99539.00;;;31.08;44.66
13080;BME280;6606;49.154;9.280;2023-05-07T07:34:36;99538.72;;;29.13;51.62
13080;BME280;6606;49.154;9.280;2023-05-07T07:37:18;99537.34;;;29.66;54.48
13080;BME280;6606;49.154;9.280;2023-05-07T07:40:01;99540.69;;;30.29;49.12
13080;BME280;6606;49.154;9.280;2023-05-07T07:42:43;99551.09;;;32.04;45.62
13080;BME280;6606;49.154;9.280;2023-05-07T07:45:26;99547.31;;;32.05;43.57
13080;BME280;6606;49.154;9.280;2023-05-07T07:48:08;99547.13;;;28.34;59.67
13080;BME280;6606;49.154;9.280;2023-05-07T07:50:52;99545.81;;;27.57;60.90
13080;BME280;6606;49.154;9.280;2023-05-07T07:53:34;99543.97;;;25.92;75.01
13080;BME280;6606;49.154;9.280;2023-05-07T07:56:20;99540.56;;;26.36;71.89
13080;BME280;6606;49.154;9.280;2023-05-07T07:59:03;99545.00;;;29.97;56.08
13080;BME280;6606;49.154;9.280;2023-05-07T08:01:45;99549.22;;;29.99;50.58
13080;BME280;6606;49.154;9.280;2023-05-07T08:04:32;99554.94;;;28.65;56.83
13080;BME280;6606;49.154;9.280;2023-05-07T08:07:19;99544.81;;;29.09;53.16
13080;BME280;6606;49.154;9.280;2023-05-07T08:10:04;99548.06;;;30.49;48.82
13080;BME280;6606;49.154;9.280;2023-05-07T08:12:47;99548.31;;;29.79;48.72
13080;BME280;6606;49.154;9.280;2023-05-07T08:15:29;99546.81;;;30.51;47.08
13080;BME280;6606;49.154;9.280;2023-05-07T08:18:11;99546.41;;;30.94;46.98
13080;BME280;6606;49.154;9.280;2023-05-07T08:20:54;99542.13;;;31.11;46.33
13080;BME280;6606;49.154;9.280;2023-05-07T08:23:41;99545.59;;;31.59;44.53
13080;BME280;6606;49.154;9.280;2023-05-07T08:26:25;99544.31;;;32.13;43.01
13080;BME280;6606;49.154;9.280;2023-05-07T08:29:08;99546.34;;;31.21;43.53
13080;BME280;6606;49.154;9.280;2023-05-07T08:31:50;99536.84;;;31.82;44.07
13080;BME280;6606;49.154;9.280;2023-05-07T08:34:32;99534.59;;;30.74;43.44
13080;BME280;6606;49.154;9.280;2023-05-07T08:37:16;99536.56;;;28.10;52.91
13080;BME280;6606;49.154;9.280;2023-05-07T08:39:59;99538.34;;;26.62;70.57
13080;BME280;6606;49.154;9.280;2023-05-07T08:42:48;99534.63;;;25.94;78.70
13080;BME280;6606;49.154;9.280;2023-05-07T08:45:34;99536.88;;;24.95;86.07
13080;BME280;6606;49.154;9.280;2023-05-07T08:48:17;99539.94;;;24.43;97.71
13080;BME280;6606;49.154;9.280;2023-05-07T08:51:12;99541.97;;;24.08;100.00
13080;BME280;6606;49.154;9.280;2023-05-07T08:53:53;99540.59;;;24.12;100.00
13080;BME280;6606;49.154;9.280;2023-05-07T08:56:39;99546.69;;;24.14;100.00
13080;BME280;6606;49.154;9.280;2023-05-07T08:59:21;99548.06;;;24.19;100.00
13080;BME280;6606;49.154;9.280;2023-05-07T09:02:06;99550.06;;;24.00;100.00
13080;BME280;6606;49.154;9.280;2023-05-07T09:04:50;99550.78;;;24.43;100.00
13080;BME280;6606;49.154;9.280;2023-05-07T09:16:42;99532.50;;;24.62;100.00
13080;BME280;6606;49.154;9.280;2023-05-07T09:19:26;99538.03;;;24.85;99.13
13080;BME280;6606;49.154;9.280;2023-05-07T09:22:11;99537.94;;;24.62;100.00
13080;BME280;6606;49.154;9.280;2023-05-07T09:25:04;99534.69;;;24.83;100.00
13080;BME280;6606;49.154;9.280;2023-05-07T09:27:46;99530.91;;;24.92;93.33
13080;BME280;6606;49.154;9.280;2023-05-07T09:30:28;99527.72;;;24.88;97.48
13080;BME280;6606;49.154;9.280;2023-05-07T09:33:13;99522.34;;;24.72;95.57
13080;BME280;6606;49.154;9.280;2023-05-07T09:36:02;99529.59;;;24.71;97.29
13080;BME280;6606;49.154;9.280;2023-05-07T09:38:45;99520.25;;;24.98;100.00
13080;BME280;6606;49.154;9.280;2023-05-07T09:41:28;99530.47;;;24.72;97.49
13080;BME280;6606;49.154;9.280;2023-05-07T09:44:20;99518.84;;;25.02;96.41
13080;BME280;6606;49.154;9.280;2023-05-07T09:47:06;99519.25;;;24.91;95.72
13080;BME280;6606;49.154;9.280;2023-05-07T09:49:56;99517.47;;;25.15;90.23
13080;BME280;6606;49.154;9.280;2023-05-07T09:52:40;99519.09;;;25.40;93.02
13080;BME280;6606;49.154;9.280;2023-05-07T09:55:25;99507.53;;;25.78;87.30
13080;BME280;6606;49.154;9.280;2023-05-07T09:58:07;99516.59;;;25.93;92.64
13080;BME280;6606;49.154;9.280;2023-05-07T10:00:52;99514.44;;;25.88;84.60
13080;BME280;6606;49.154;9.280;2023-05-07T10:03:35;99507.31;;;25.87;80.05
13080;BME280;6606;49.154;9.280;2023-05-07T10:06:20;99503.63;;;25.80;83.94
13080;BME280;6606;49.154;9.280;2023-05-07T10:09:05;99496.34;;;26.04;78.59
13080;BME280;6606;49.154;9.280;2023-05-07T10:11:48;99498.59;;;26.61;78.63
13080;BME280;6606;49.154;9.280;2023-05-07T10:14:30;99503.00;;;26.77;69.06
13080;BME280;6606;49.154;9.280;2023-05-07T10:17:16;99496.75;;;26.91;73.58
13080;BME280;6606;49.154;9.280;2023-05-07T10:19:59;99496.94;;;27.34;60.95
13080;BME280;6606;49.154;9.280;2023-05-07T10:22:46;99503.03;;;28.31;53.11
13080;BME280;6606;49.154;9.280;2023-05-07T10:25:33;99494.50;;;27.25;54.45
13080;BME280;6606;49.154;9.280;2023-05-07T10:28:22;99489.00;;;27.54;51.94
13080;BME280;6606;49.154;9.280;2023-05-07T10:31:23;99499.09;;;27.24;54.20
13080;BME280;6606;49.154;9.280;2023-05-07T10:34:11;99487.31;;;27.53;54.09
13080;BME280;6606;49.154;9.280;2023-05-07T10:36:55;99486.78;;;27.79;52.51
13080;BME280;6606;49.154;9.280;2023-05-07T10:39:39;99494.41;;;26.50;62.04
13080;BME280;6606;49.154;9.280;2023-05-07T10:42:25;99484.53;;;26.72;56.68
13080;BME280;6606;49.154;9.280;2023-05-07T10:45:13;99487.19;;;26.81;60.19
13080;BME280;6606;49.154;9.280;2023-05-07T10:48:12;99482.00;;;26.71;56.41
13080;BME280;6606;49.154;9.280;2023-05-07T10:51:18;99479.97;;;27.17;56.20
13080;BME280;6606;49.154;9.280;2023-05-07T10:54:22;99474.03;;;26.84;56.75
13080;BME280;6606;49.154;9.280;2023-05-07T10:57:35;99472.41;;;26.22;57.70
13080;BME280;6606;49.154;9.280;2023-05-07T11:00:42;99469.34;;;26.63;59.26
13080;BME280;6606;49.154;9.280;2023-05-07T11:03:32;99468.16;;;26.43;59.04
13080;BME280;6606;49.154;9.280;2023-05-07T11:06:18;99469.97;;;25.90;61.39
13080;BME280;6606;49.154;9.280;2023-05-07T11:09:04;99466.66;;;26.40;59.11
13080;BME280;6606;49.154;9.280;2023-05-07T11:12:12;99466.09;;;25.84;62.66
13080;BME280;6606;49.154;9.280;2023-05-07T11:15:06;99466.09;;;25.13;64.76
13080;BME280;6606;49.154;9.280;2023-05-07T11:17:54;99468.13;;;25.28;61.04
13080;BME280;6606;49.154;9.280;2023-05-07T11:20:59;99464.84;;;25.40;58.74
13080;BME280;6606;49.154;9.280;2023-05-07T11:23:59;99467.03;;;25.68;60.68
13080;BME280;6606;49.154;9.280;2023-05-07T11:26:52;99460.44;;;25.62;59.24
13080;BME280;6606;49.154;9.280;2023-05-07T11:29:36;99467.50;;;25.72;59.00
13080;BME280;6606;49.154;9.280;2023-05-07T11:32:24;99467.81;;;25.54;60.67
13080;BME280;6606;49.154;9.280;2023-05-07T11:35:08;99464.31;;;25.37;57.75
13080;BME280;6606;49.154;9.280;2023-05-07T11:37:50;99459.50;;;26.24;55.73
13080;BME280;6606;49.154;9.280;2023-05-07T11:40:48;99457.31;;;25.74;60.53
13080;BME280;6606;49.154;9.280;2023-05-07T11:43:31;99460.75;;;25.99;61.34
13080;BME280;6606;49.154;9.280;2023-05-07T11:46:13;99452.09;;;25.64;60.94
13080;BME280;6606;49.154;9.280;2023-05-07T11:48:57;99454.66;;;25.65;62.07
13080;BME280;6606;49.154;9.280;2023-05-07T11:51:39;99453.47;;;26.14;57.62
13080;BME280;6606;49.154;9.280;2023-05-07T11:54:21;99449.44;;;26.25;55.86
13080;BME280;6606;49.154;9.280;2023-05-07T11:57:03;99450.97;;;26.80;57.76
13080;BME280;6606;49.154;9.280;2023-05-07T11:59:45;99450.22;;;25.96;64.30
13080;BME280;6606;49.154;9.280;2023-05-07T12:02:27;99451.19;;;26.03;58.23
13080;BME280;6606;49.154;9.280;2023-05-07T12:05:11;99447.16;;;26.37;62.96
13080;BME280;6606;49.154;9.280;2023-05-07T12:07:56;99452.66;;;26.66;58.37
13080;BME280;6606;49.154;9.280;2023-05-07T12:10:40;99448.75;;;26.31;59.55
13080;BME280;6606;49.154;9.280;2023-05-07T12:39:04;99439.53;;;27.51;51.93
13080;BME280;6606;49.154;9.280;2023-05-07T12:41:52;99429.75;;;27.05;54.38
13080;BME280;6606;49.154;9.280;2023-05-07T12:44:34;99431.84;;;26.73;48.57
13080;BME280;6606;49.154;9.280;2023-05-07T12:47:19;99429.63;;;27.28;49.62
13080;BME280;6606;49.154;9.280;2023-05-07T12:50:02;99427.50;;;27.24;52.94
13080;BME280;6606;49.154;9.280;2023-05-07T12:52:47;99434.53;;;26.88;51.75
13080;BME280;6606;49.154;9.280;2023-05-07T12:55:30;99433.97;;;26.93;50.49
13080;BME280;6606;49.154;9.280;2023-05-07T12:58:16;99429.59;;;26.92;55.55
13080;BME280;6606;49.154;9.280;2023-05-07T13:01:00;99429.97;;;27.18;56.16
13080;BME280;6606;49.154;9.280;2023-05-07T13:03:48;99431.94;;;26.65;53.49
13080;BME280;6606;49.154;9.280;2023-05-07T13:06:30;99430.94;;;26.43;52.56
13080;BME280;6606;49.154;9.280;2023-05-07T13:09:12;99435.09;;;26.16;54.62
13080;BME280;6606;49.154;9.280;2023-05-07T13:11:55;99428.81;;;26.53;50.40
13080;BME280;6606;49.154;9.280;2023-05-07T13:14:37;99437.28;;;26.73;52.68
13080;BME280;6606;49.154;9.280;2023-05-07T13:17:19;99439.91;;;26.82;49.18
13080;BME280;6606;49.154;9.280;2023-05-07T13:20:00;99431.31;;;26.25;51.10
13080;BME280;6606;49.154;9.280;2023-05-07T13:22:43;99435.03;;;26.92;53.88
13080;BME280;6606;49.154;9.280;2023-05-07T13:25:24;99436.63;;;26.71;51.38
13080;BME280;6606;49.154;9.280;2023-05-07T13:28:08;99432.50;;;26.61;55.00
13080;BME280;6606;49.154;9.280;2023-05-07T13:30:50;99422.59;;;26.45;53.94
13080;BME280;6606;49.154;9.280;2023-05-07T13:33:32;99427.03;;;26.08;53.84
13080;BME280;6606;49.154;9.280;2023-05-07T13:36:14;99414.25;;;26.31;54.12
13080;BME280;6606;49.154;9.280;2023-05-07T13:38:56;99416.41;;;26.51;57.00
13080;BME280;6606;49.154;9.280;2023-05-07T13:41:39;99419.03;;;26.29;55.10
13080;BME280;6606;49.154;9.280;2023-05-07T13:44:22;99400.53;;;26.25;55.03
13080;BME280;6606;49.154;9.280;2023-05-07T13:47:04;99400.28;;;26.35;59.44
13080;BME280;6606;49.154;9.280;2023-05-07T13:49:46;99398.03;;;26.23;57.12
13080;BME280;6606;49.154;9.280;2023-05-07T13:52:29;99395.31;;;25.62;57.46
13080;BME280;6606;49.154;9.280;2023-05-07T13:55:11;99388.66;;;25.65;59.33
13080;BME280;6606;49.154;9.280;2023-05-07T13:57:56;99393.69;;;25.14;59.58
13080;BME280;6606;49.154;9.280;2023-05-07T14:00:40;99399.03;;;24.60;62.63
13080;BME280;6606;49.154;9.280;2023-05-07T14:03:21;99407.28;;;24.66;68.35
13080;BME280;6606;49.154;9.280;2023-05-07T14:06:03;99406.47;;;24.57;66.56
13080;BME280;6606;49.154;9.280;2023-05-07T14:08:45;99428.03;;;24.18;69.92
13080;BME280;6606;49.154;9.280;2023-05-07T14:11:27;99447.19;;;24.17;71.43
13080;BME280;6606;49.154;9.280;2023-05-07T14:14:08;99458.28;;;23.64;100.00
13080;BME280;6606;49.154;9.280;2023-05-07T14:16:53;99481.41;;;22.12;100.00
13080;BME280;6606;49.154;9.280;2023-05-07T14:19:35;99517.72;;;20.52;100.00
13080;BME280;6606;49.154;9.280;2023-05-07T14:22:16;99523.38;;;19.61;100.00
13080;BME280;6606;49.154;9.280;2023-05-07T14:24:58;99526.22;;;19.29;100.00
13080;BME280;6606;49.154;9.280;2023-05-07T14:27:40;99524.41;;;18.99;100.00
13080;BME280;6606;49.154;9.280;2023-05-07T14:30:22;99536.31;;;18.75;100.00
13080;BME280;6606;49.154;9.280;2023-05-07T14:33:06;99548.03;;;18.53;100.00
13080;BME280;6606;49.154;9.280;2023-05-07T14:35:47;99574.72;;;18.55;100.00
13080;BME280;6606;49.154;9.280;2023-05-07T14:38:30;99575.72;;;18.54;100.00
13080;BME280;6606;49.154;9.280;2023-05-07T14:41:13;99591.31;;;18.28;100.00
13080;BME280;6606;49.154;9.280;2023-05-07T14:43:56;99589.97;;;18.01;100.00
13080;BME280;6606;49.154;9.280;2023-05-07T14:46:39;99607.44;;;18.28;100.00
13080;BME280;6606;49.154;9.280;2023-05-07T14:49:22;99608.63;;;18.02;100.00
13080;BME280;6606;49.154;9.280;2023-05-07T14:52:04;99618.47;;;18.13;100.00
13080;BME280;6606;49.154;9.280;2023-05-07T14:54:46;99620.78;;;18.07;100.00
13080;BME280;6606;49.154;9.280;2023-05-07T14:57:28;99624.50;;;17.94;100.00
13080;BME280;6606;49.154;9.280;2023-05-07T15:00:10;99625.47;;;17.71;100.00
13080;BME280;6606;49.154;9.280;2023-05-07T15:02:54;99626.56;;;17.68;100.00
13080;BME280;6606;49.154;9.280;2023-05-07T15:05:40;99624.75;;;17.80;100.00
13080;BME280;6606;49.154;9.280;2023-05-07T15:08:21;99620.81;;;17.73;100.00
13080;BME280;6606;49.154;9.280;2023-05-07T15:11:03;99623.06;;;17.79;100.00